キャンベラ の空港の天気 - METARとTAF

キャンベラ国際空港 ( YSCB / CBR ) - オーストラリア オーストラリア首都特別地域キャンベラ
飛行場実況気象(Metar)
観測時間02/02 02:00 AEDT (02/01 15:00 UTC)
風向・風速静穏 0m/s
視程10km以上
天気現象
なし
気温14℃
湿度100%
気圧1003hPa
METARYSCB 011500Z AUTO 00000KT 9999 // NCD 14/14 Q1003 RF00.0/000.0
過去の天気等 Google飛行場航空写真 Wunderground天気予報

過去48時間のMETAR

飛行場予報(TAF)
発表時間: 2/02 01:30 AEDT (2/01 14:30 UTC)
予報対象時間: 2日2時 AEDT ~ 2日23時 AEDT
風向・風速不定 3m/s
視程10km以上
全天の4割程度の雲 雲底高度 460m
2日11時 AEDT から
風向・風速西北西 8m/s 瞬間風速 13m/s
視程10km以上
なし
2日19時 AEDT から
風向・風速西北西 6m/s
視程10km以上
なし
2日2時 AEDT ~ 2日8時 AEDT に一時的に
風向・風速不定 2m/s
視程10km以上
全天の8割程度の雲 雲底高度 300m
2日3時 AEDT から 確率 30% で
視程500m
天気現象
全天の8割程度の雲 雲底高度 60m
TAF YSCB 011430Z 0115/0212 VRB05KT 9999 SCT015
FM020000 30015G25KT CAVOK
FM020800 30012KT CAVOK
TEMPO 0115/0121 VRB03KT 9999 BKN010
PROB30 0116/0120 0500 FG BKN002